sensor_id;sensor_type;location;lat;lon;timestamp;P1;durP1;ratioP1;P2;durP2;ratioP2
15404;SDS011;7801;48.124;11.590;2024-03-22T00:01:53;2.87;;;2.77;;
15404;SDS011;7801;48.124;11.590;2024-03-22T00:04:19;3.70;;;3.40;;
15404;SDS011;7801;48.124;11.590;2024-03-22T00:06:47;3.33;;;3.23;;
15404;SDS011;7801;48.124;11.590;2024-03-22T00:09:13;4.00;;;3.70;;
15404;SDS011;7801;48.124;11.590;2024-03-22T00:11:40;3.83;;;3.57;;
15404;SDS011;7801;48.124;11.590;2024-03-22T00:14:06;4.57;;;4.27;;
15404;SDS011;7801;48.124;11.590;2024-03-22T00:16:32;5.10;;;4.27;;
15404;SDS011;7801;48.124;11.590;2024-03-22T00:18:57;3.50;;;3.23;;
15404;SDS011;7801;48.124;11.590;2024-03-22T00:21:23;2.83;;;2.73;;
15404;SDS011;7801;48.124;11.590;2024-03-22T00:23:48;4.70;;;4.30;;
15404;SDS011;7801;48.124;11.590;2024-03-22T00:26:14;7.80;;;7.10;;
15404;SDS011;7801;48.124;11.590;2024-03-22T00:28:39;4.07;;;3.87;;
15404;SDS011;7801;48.124;11.590;2024-03-22T00:31:05;4.60;;;4.20;;
15404;SDS011;7801;48.124;11.590;2024-03-22T00:33:30;3.43;;;3.13;;
15404;SDS011;7801;48.124;11.590;2024-03-22T00:35:56;4.67;;;4.33;;
15404;SDS011;7801;48.124;11.590;2024-03-22T00:38:22;4.70;;;4.33;;
15404;SDS011;7801;48.124;11.590;2024-03-22T00:40:47;5.37;;;4.97;;
15404;SDS011;7801;48.124;11.590;2024-03-22T00:43:12;3.87;;;3.53;;
15404;SDS011;7801;48.124;11.590;2024-03-22T00:45:39;3.97;;;3.77;;
15404;SDS011;7801;48.124;11.590;2024-03-22T00:48:04;5.73;;;4.63;;
15404;SDS011;7801;48.124;11.590;2024-03-22T00:50:30;4.43;;;4.10;;
15404;SDS011;7801;48.124;11.590;2024-03-22T00:52:56;3.73;;;3.53;;
15404;SDS011;7801;48.124;11.590;2024-03-22T00:55:22;3.60;;;3.30;;
15404;SDS011;7801;48.124;11.590;2024-03-22T00:57:48;5.07;;;4.67;;
15404;SDS011;7801;48.124;11.590;2024-03-22T01:00:13;4.80;;;3.53;;
15404;SDS011;7801;48.124;11.590;2024-03-22T01:02:40;2.40;;;2.30;;
15404;SDS011;7801;48.124;11.590;2024-03-22T01:05:05;4.50;;;4.20;;
15404;SDS011;7801;48.124;11.590;2024-03-22T01:07:31;4.13;;;3.83;;
15404;SDS011;7801;48.124;11.590;2024-03-22T01:09:56;4.20;;;3.97;;
15404;SDS011;7801;48.124;11.590;2024-03-22T01:12:21;3.83;;;3.60;;
15404;SDS011;7801;48.124;11.590;2024-03-22T01:14:47;4.13;;;3.93;;
15404;SDS011;7801;48.124;11.590;2024-03-22T01:17:13;2.83;;;2.73;;
15404;SDS011;7801;48.124;11.590;2024-03-22T01:19:39;4.37;;;4.03;;
15404;SDS011;7801;48.124;11.590;2024-03-22T01:22:04;5.00;;;4.70;;
15404;SDS011;7801;48.124;11.590;2024-03-22T01:24:29;3.63;;;3.43;;
15404;SDS011;7801;48.124;11.590;2024-03-22T01:26:56;3.27;;;3.07;;
15404;SDS011;7801;48.124;11.590;2024-03-22T01:29:21;3.40;;;3.20;;
15404;SDS011;7801;48.124;11.590;2024-03-22T01:31:47;5.50;;;5.10;;
15404;SDS011;7801;48.124;11.590;2024-03-22T01:34:13;3.47;;;3.27;;
15404;SDS011;7801;48.124;11.590;2024-03-22T01:36:40;5.43;;;4.07;;
15404;SDS011;7801;48.124;11.590;2024-03-22T01:39:05;4.17;;;3.77;;
15404;SDS011;7801;48.124;11.590;2024-03-22T01:41:31;3.80;;;3.37;;
15404;SDS011;7801;48.124;11.590;2024-03-22T01:43:57;4.47;;;4.07;;
15404;SDS011;7801;48.124;11.590;2024-03-22T01:46:23;5.00;;;4.67;;
15404;SDS011;7801;48.124;11.590;2024-03-22T01:48:48;4.10;;;3.70;;
15404;SDS011;7801;48.124;11.590;2024-03-22T01:51:13;4.33;;;4.03;;
15404;SDS011;7801;48.124;11.590;2024-03-22T01:53:39;4.20;;;3.90;;
15404;SDS011;7801;48.124;11.590;2024-03-22T01:56:05;4.13;;;3.83;;
15404;SDS011;7801;48.124;11.590;2024-03-22T01:58:33;4.03;;;3.67;;
15404;SDS011;7801;48.124;11.590;2024-03-22T02:00:59;7.27;;;4.67;;
15404;SDS011;7801;48.124;11.590;2024-03-22T02:03:25;4.20;;;3.87;;
15404;SDS011;7801;48.124;11.590;2024-03-22T02:05:50;5.10;;;4.67;;
15404;SDS011;7801;48.124;11.590;2024-03-22T02:08:15;3.80;;;3.53;;
15404;SDS011;7801;48.124;11.590;2024-03-22T02:10:41;2.90;;;2.80;;
15404;SDS011;7801;48.124;11.590;2024-03-22T02:13:06;4.40;;;4.10;;
15404;SDS011;7801;48.124;11.590;2024-03-22T02:15:33;4.47;;;4.03;;
15404;SDS011;7801;48.124;11.590;2024-03-22T02:18:00;5.03;;;4.63;;
15404;SDS011;7801;48.124;11.590;2024-03-22T02:20:25;4.10;;;3.80;;
15404;SDS011;7801;48.124;11.590;2024-03-22T02:22:52;3.20;;;3.03;;
15404;SDS011;7801;48.124;11.590;2024-03-22T02:25:18;4.33;;;4.03;;
15404;SDS011;7801;48.124;11.590;2024-03-22T02:27:45;3.63;;;3.40;;
15404;SDS011;7801;48.124;11.590;2024-03-22T02:30:10;3.80;;;3.60;;
15404;SDS011;7801;48.124;11.590;2024-03-22T02:32:35;4.87;;;3.50;;
15404;SDS011;7801;48.124;11.590;2024-03-22T02:35:02;4.77;;;4.43;;
15404;SDS011;7801;48.124;11.590;2024-03-22T02:37:28;5.37;;;4.87;;
15404;SDS011;7801;48.124;11.590;2024-03-22T02:39:53;3.57;;;3.20;;
15404;SDS011;7801;48.124;11.590;2024-03-22T02:42:19;3.60;;;3.40;;
15404;SDS011;7801;48.124;11.590;2024-03-22T02:44:44;5.27;;;4.83;;
15404;SDS011;7801;48.124;11.590;2024-03-22T02:47:10;3.93;;;3.73;;
15404;SDS011;7801;48.124;11.590;2024-03-22T02:49:38;4.13;;;3.17;;
15404;SDS011;7801;48.124;11.590;2024-03-22T02:52:05;3.97;;;3.67;;
15404;SDS011;7801;48.124;11.590;2024-03-22T02:54:30;3.10;;;3.00;;
15404;SDS011;7801;48.124;11.590;2024-03-22T02:56:56;3.20;;;3.00;;
15404;SDS011;7801;48.124;11.590;2024-03-22T02:59:21;5.90;;;4.77;;
15404;SDS011;7801;48.124;11.590;2024-03-22T03:01:47;3.73;;;3.53;;
15404;SDS011;7801;48.124;11.590;2024-03-22T03:04:13;3.37;;;3.27;;
15404;SDS011;7801;48.124;11.590;2024-03-22T03:06:39;3.90;;;3.60;;
15404;SDS011;7801;48.124;11.590;2024-03-22T03:09:04;4.20;;;4.00;;
15404;SDS011;7801;48.124;11.590;2024-03-22T03:11:33;5.07;;;4.67;;
15404;SDS011;7801;48.124;11.590;2024-03-22T03:13:58;3.80;;;3.57;;
15404;SDS011;7801;48.124;11.590;2024-03-22T03:16:23;2.50;;;2.40;;
15404;SDS011;7801;48.124;11.590;2024-03-22T03:18:48;4.37;;;4.07;;
15404;SDS011;7801;48.124;11.590;2024-03-22T03:21:14;4.27;;;3.87;;
15404;SDS011;7801;48.124;11.590;2024-03-22T03:23:39;4.60;;;4.20;;
15404;SDS011;7801;48.124;11.590;2024-03-22T03:26:04;3.93;;;3.20;;
15404;SDS011;7801;48.124;11.590;2024-03-22T03:28:30;4.30;;;3.90;;
15404;SDS011;7801;48.124;11.590;2024-03-22T03:30:56;3.70;;;3.37;;
15404;SDS011;7801;48.124;11.590;2024-03-22T03:33:21;4.03;;;3.73;;
15404;SDS011;7801;48.124;11.590;2024-03-22T03:35:47;3.07;;;2.87;;
15404;SDS011;7801;48.124;11.590;2024-03-22T03:38:14;3.57;;;3.40;;
15404;SDS011;7801;48.124;11.590;2024-03-22T03:40:41;3.97;;;3.63;;
15404;SDS011;7801;48.124;11.590;2024-03-22T03:43:09;3.67;;;3.47;;
15404;SDS011;7801;48.124;11.590;2024-03-22T03:45:38;5.80;;;4.47;;
15404;SDS011;7801;48.124;11.590;2024-03-22T03:48:03;6.23;;;5.93;;
15404;SDS011;7801;48.124;11.590;2024-03-22T03:50:29;4.87;;;4.37;;
15404;SDS011;7801;48.124;11.590;2024-03-22T03:52:54;4.80;;;4.40;;
15404;SDS011;7801;48.124;11.590;2024-03-22T03:55:19;4.77;;;4.37;;
15404;SDS011;7801;48.124;11.590;2024-03-22T03:57:46;4.47;;;4.20;;
15404;SDS011;7801;48.124;11.590;2024-03-22T04:00:11;11.93;;;3.93;;
15404;SDS011;7801;48.124;11.590;2024-03-22T04:02:37;4.03;;;3.83;;
15404;SDS011;7801;48.124;11.590;2024-03-22T04:05:02;4.37;;;4.17;;
15404;SDS011;7801;48.124;11.590;2024-03-22T04:07:29;4.20;;;3.80;;
15404;SDS011;7801;48.124;11.590;2024-03-22T04:09:54;5.70;;;5.10;;
15404;SDS011;7801;48.124;11.590;2024-03-22T04:12:20;4.23;;;3.93;;
15404;SDS011;7801;48.124;11.590;2024-03-22T04:14:45;3.70;;;3.47;;
15404;SDS011;7801;48.124;11.590;2024-03-22T04:17:10;4.60;;;4.23;;
15404;SDS011;7801;48.124;11.590;2024-03-22T04:19:36;5.10;;;4.70;;
15404;SDS011;7801;48.124;11.590;2024-03-22T04:22:01;3.20;;;3.03;;
15404;SDS011;7801;48.124;11.590;2024-03-22T04:24:27;12.73;;;4.20;;
15404;SDS011;7801;48.124;11.590;2024-03-22T04:26:54;4.33;;;3.93;;
15404;SDS011;7801;48.124;11.590;2024-03-22T04:29:19;3.73;;;3.53;;
15404;SDS011;7801;48.124;11.590;2024-03-22T04:31:47;3.53;;;3.23;;
15404;SDS011;7801;48.124;11.590;2024-03-22T04:34:13;4.83;;;4.17;;
15404;SDS011;7801;48.124;11.590;2024-03-22T04:36:38;3.93;;;3.73;;
15404;SDS011;7801;48.124;11.590;2024-03-22T04:39:03;3.97;;;3.77;;
15404;SDS011;7801;48.124;11.590;2024-03-22T04:41:28;4.07;;;3.67;;
15404;SDS011;7801;48.124;11.590;2024-03-22T04:43:54;4.00;;;3.63;;
15404;SDS011;7801;48.124;11.590;2024-03-22T04:46:19;5.27;;;4.87;;
15404;SDS011;7801;48.124;11.590;2024-03-22T04:48:44;3.97;;;3.77;;
15404;SDS011;7801;48.124;11.590;2024-03-22T04:51:11;4.47;;;4.07;;
15404;SDS011;7801;48.124;11.590;2024-03-22T04:53:36;3.73;;;3.47;;
15404;SDS011;7801;48.124;11.590;2024-03-22T04:56:01;3.23;;;3.03;;
15404;SDS011;7801;48.124;11.590;2024-03-22T04:58:28;3.33;;;3.23;;
15404;SDS011;7801;48.124;11.590;2024-03-22T05:00:56;4.17;;;3.87;;
15404;SDS011;7801;48.124;11.590;2024-03-22T05:03:23;4.20;;;3.87;;
15404;SDS011;7801;48.124;11.590;2024-03-22T05:05:49;4.73;;;4.40;;
15404;SDS011;7801;48.124;11.590;2024-03-22T05:08:15;4.17;;;3.97;;
15404;SDS011;7801;48.124;11.590;2024-03-22T05:10:40;3.37;;;3.17;;
15404;SDS011;7801;48.124;11.590;2024-03-22T05:13:07;4.07;;;3.77;;
15404;SDS011;7801;48.124;11.590;2024-03-22T05:15:34;3.43;;;3.20;;
15404;SDS011;7801;48.124;11.590;2024-03-22T05:18:02;4.07;;;3.67;;
15404;SDS011;7801;48.124;11.590;2024-03-22T05:20:28;4.90;;;3.63;;
15404;SDS011;7801;48.124;11.590;2024-03-22T05:22:54;4.00;;;3.80;;
15404;SDS011;7801;48.124;11.590;2024-03-22T05:25:19;4.43;;;4.03;;
15404;SDS011;7801;48.124;11.590;2024-03-22T05:27:48;4.43;;;4.13;;
15404;SDS011;7801;48.124;11.590;2024-03-22T05:30:13;2.53;;;2.43;;
15404;SDS011;7801;48.124;11.590;2024-03-22T05:32:39;3.83;;;3.53;;
15404;SDS011;7801;48.124;11.590;2024-03-22T05:35:06;4.83;;;3.87;;
15404;SDS011;7801;48.124;11.590;2024-03-22T05:37:34;3.33;;;3.13;;
15404;SDS011;7801;48.124;11.590;2024-03-22T05:40:01;3.53;;;3.30;;
15404;SDS011;7801;48.124;11.590;2024-03-22T05:42:30;2.73;;;2.63;;
15404;SDS011;7801;48.124;11.590;2024-03-22T05:44:57;2.70;;;2.50;;
15404;SDS011;7801;48.124;11.590;2024-03-22T05:47:23;3.63;;;3.37;;
15404;SDS011;7801;48.124;11.590;2024-03-22T05:49:48;2.60;;;2.50;;
15404;SDS011;7801;48.124;11.590;2024-03-22T05:52:13;3.83;;;3.10;;
15404;SDS011;7801;48.124;11.590;2024-03-22T05:54:39;5.70;;;3.63;;
15404;SDS011;7801;48.124;11.590;2024-03-22T05:57:06;4.23;;;2.87;;
15404;SDS011;7801;48.124;11.590;2024-03-22T05:59:32;3.50;;;3.30;;
15404;SDS011;7801;48.124;11.590;2024-03-22T06:01:58;3.43;;;3.23;;
15404;SDS011;7801;48.124;11.590;2024-03-22T06:04:24;9.10;;;3.20;;
15404;SDS011;7801;48.124;11.590;2024-03-22T06:06:49;3.37;;;3.17;;
15404;SDS011;7801;48.124;11.590;2024-03-22T06:09:15;2.03;;;1.93;;
15404;SDS011;7801;48.124;11.590;2024-03-22T06:11:49;2.30;;;2.20;;
15404;SDS011;7801;48.124;11.590;2024-03-22T06:14:18;2.90;;;2.70;;
15404;SDS011;7801;48.124;11.590;2024-03-22T06:16:43;3.03;;;2.83;;
15404;SDS011;7801;48.124;11.590;2024-03-22T06:19:09;2.57;;;2.47;;
15404;SDS011;7801;48.124;11.590;2024-03-22T06:21:35;3.33;;;3.13;;
15404;SDS011;7801;48.124;11.590;2024-03-22T06:24:01;2.67;;;2.57;;
15404;SDS011;7801;48.124;11.590;2024-03-22T06:26:26;2.87;;;2.67;;
15404;SDS011;7801;48.124;11.590;2024-03-22T06:28:53;2.70;;;2.50;;
15404;SDS011;7801;48.124;11.590;2024-03-22T06:31:19;2.50;;;2.30;;
15404;SDS011;7801;48.124;11.590;2024-03-22T06:33:48;3.00;;;2.80;;
15404;SDS011;7801;48.124;11.590;2024-03-22T06:36:14;3.23;;;3.03;;
15404;SDS011;7801;48.124;11.590;2024-03-22T06:38:40;2.37;;;2.27;;
15404;SDS011;7801;48.124;11.590;2024-03-22T06:41:05;1.70;;;1.60;;
15404;SDS011;7801;48.124;11.590;2024-03-22T06:43:31;2.33;;;2.23;;
15404;SDS011;7801;48.124;11.590;2024-03-22T06:45:58;2.57;;;2.37;;
15404;SDS011;7801;48.124;11.590;2024-03-22T06:48:23;5.00;;;3.57;;
15404;SDS011;7801;48.124;11.590;2024-03-22T06:50:49;3.10;;;2.83;;
15404;SDS011;7801;48.124;11.590;2024-03-22T06:53:14;2.47;;;2.30;;
15404;SDS011;7801;48.124;11.590;2024-03-22T06:55:39;8.93;;;2.80;;
15404;SDS011;7801;48.124;11.590;2024-03-22T06:58:06;1.87;;;1.77;;
15404;SDS011;7801;48.124;11.590;2024-03-22T07:00:31;3.23;;;2.63;;
15404;SDS011;7801;48.124;11.590;2024-03-22T07:03:01;3.53;;;2.97;;
15404;SDS011;7801;48.124;11.590;2024-03-22T07:05:28;2.63;;;2.53;;
15404;SDS011;7801;48.124;11.590;2024-03-22T07:07:54;3.07;;;2.93;;
15404;SDS011;7801;48.124;11.590;2024-03-22T07:10:22;14.80;;;3.40;;
15404;SDS011;7801;48.124;11.590;2024-03-22T07:12:52;2.20;;;2.07;;
15404;SDS011;7801;48.124;11.590;2024-03-22T07:15:19;2.33;;;2.23;;
15404;SDS011;7801;48.124;11.590;2024-03-22T07:17:45;1.87;;;1.83;;
15404;SDS011;7801;48.124;11.590;2024-03-22T07:20:12;2.43;;;2.33;;
15404;SDS011;7801;48.124;11.590;2024-03-22T07:22:39;1.93;;;1.77;;
15404;SDS011;7801;48.124;11.590;2024-03-22T07:25:06;2.40;;;2.30;;
15404;SDS011;7801;48.124;11.590;2024-03-22T07:27:31;3.30;;;2.10;;
15404;SDS011;7801;48.124;11.590;2024-03-22T07:29:57;2.37;;;1.67;;
15404;SDS011;7801;48.124;11.590;2024-03-22T07:32:24;1.57;;;1.47;;
15404;SDS011;7801;48.124;11.590;2024-03-22T07:34:49;1.73;;;1.73;;
15404;SDS011;7801;48.124;11.590;2024-03-22T07:37:14;1.43;;;1.33;;
15404;SDS011;7801;48.124;11.590;2024-03-22T07:39:40;1.33;;;1.33;;
15404;SDS011;7801;48.124;11.590;2024-03-22T07:42:06;1.60;;;1.60;;
15404;SDS011;7801;48.124;11.590;2024-03-22T07:44:32;1.27;;;1.27;;
15404;SDS011;7801;48.124;11.590;2024-03-22T07:46:57;1.37;;;1.37;;
15404;SDS011;7801;48.124;11.590;2024-03-22T07:49:24;1.17;;;1.17;;
15404;SDS011;7801;48.124;11.590;2024-03-22T07:51:49;1.17;;;1.17;;
15404;SDS011;7801;48.124;11.590;2024-03-22T07:54:15;1.07;;;1.07;;
15404;SDS011;7801;48.124;11.590;2024-03-22T07:56:41;2.60;;;2.43;;
15404;SDS011;7801;48.124;11.590;2024-03-22T07:59:06;1.17;;;1.13;;
15404;SDS011;7801;48.124;11.590;2024-03-22T08:01:31;1.83;;;1.33;;
15404;SDS011;7801;48.124;11.590;2024-03-22T08:03:57;1.40;;;1.40;;
15404;SDS011;7801;48.124;11.590;2024-03-22T08:06:24;2.00;;;1.50;;
15404;SDS011;7801;48.124;11.590;2024-03-22T08:08:49;4.43;;;1.77;;
15404;SDS011;7801;48.124;11.590;2024-03-22T08:11:14;0.80;;;0.80;;
15404;SDS011;7801;48.124;11.590;2024-03-22T08:13:41;1.03;;;0.97;;
15404;SDS011;7801;48.124;11.590;2024-03-22T08:16:06;1.80;;;1.70;;
15404;SDS011;7801;48.124;11.590;2024-03-22T08:18:34;1.60;;;1.50;;
15404;SDS011;7801;48.124;11.590;2024-03-22T08:21:01;1.30;;;1.30;;
15404;SDS011;7801;48.124;11.590;2024-03-22T08:23:28;1.90;;;1.90;;
15404;SDS011;7801;48.124;11.590;2024-03-22T08:25:55;1.87;;;1.77;;
15404;SDS011;7801;48.124;11.590;2024-03-22T08:28:22;1.50;;;1.50;;
15404;SDS011;7801;48.124;11.590;2024-03-22T08:30:47;2.50;;;2.30;;
15404;SDS011;7801;48.124;11.590;2024-03-22T08:33:12;2.63;;;1.33;;
15404;SDS011;7801;48.124;11.590;2024-03-22T08:35:38;1.47;;;1.43;;
15404;SDS011;7801;48.124;11.590;2024-03-22T08:38:04;5.00;;;1.97;;
15404;SDS011;7801;48.124;11.590;2024-03-22T08:40:38;2.33;;;2.23;;
15404;SDS011;7801;48.124;11.590;2024-03-22T08:43:04;2.30;;;2.10;;
15404;SDS011;7801;48.124;11.590;2024-03-22T08:45:31;5.00;;;4.63;;
15404;SDS011;7801;48.124;11.590;2024-03-22T08:47:56;1.83;;;1.73;;
15404;SDS011;7801;48.124;11.590;2024-03-22T08:50:22;0.67;;;0.63;;
15404;SDS011;7801;48.124;11.590;2024-03-22T08:52:51;2.10;;;1.40;;
15404;SDS011;7801;48.124;11.590;2024-03-22T08:55:16;1.90;;;1.80;;
15404;SDS011;7801;48.124;11.590;2024-03-22T08:57:42;2.13;;;2.03;;
15404;SDS011;7801;48.124;11.590;2024-03-22T09:00:09;2.00;;;1.80;;
15404;SDS011;7801;48.124;11.590;2024-03-22T09:02:35;1.70;;;1.60;;
15404;SDS011;7801;48.124;11.590;2024-03-22T09:05:02;1.70;;;1.53;;
15404;SDS011;7801;48.124;11.590;2024-03-22T09:07:30;1.10;;;1.10;;
15404;SDS011;7801;48.124;11.590;2024-03-22T09:09:56;2.17;;;1.97;;
15404;SDS011;7801;48.124;11.590;2024-03-22T09:12:21;1.47;;;1.47;;
15404;SDS011;7801;48.124;11.590;2024-03-22T09:14:47;1.90;;;1.80;;
15404;SDS011;7801;48.124;11.590;2024-03-22T09:17:12;1.53;;;1.53;;
15404;SDS011;7801;48.124;11.590;2024-03-22T09:19:39;1.53;;;1.43;;
15404;SDS011;7801;48.124;11.590;2024-03-22T09:22:05;1.43;;;1.33;;
15404;SDS011;7801;48.124;11.590;2024-03-22T09:24:33;1.63;;;1.43;;
15404;SDS011;7801;48.124;11.590;2024-03-22T09:27:00;1.13;;;1.13;;
15404;SDS011;7801;48.124;11.590;2024-03-22T09:29:25;1.50;;;1.50;;
15404;SDS011;7801;48.124;11.590;2024-03-22T09:31:52;1.30;;;1.20;;
15404;SDS011;7801;48.124;11.590;2024-03-22T09:34:17;1.40;;;1.40;;
15404;SDS011;7801;48.124;11.590;2024-03-22T09:36:44;1.33;;;1.33;;
15404;SDS011;7801;48.124;11.590;2024-03-22T09:39:11;1.20;;;1.20;;
15404;SDS011;7801;48.124;11.590;2024-03-22T09:41:41;2.17;;;0.90;;
15404;SDS011;7801;48.124;11.590;2024-03-22T09:44:08;1.83;;;1.73;;
15404;SDS011;7801;48.124;11.590;2024-03-22T09:46:41;2.90;;;1.13;;
15404;SDS011;7801;48.124;11.590;2024-03-22T09:49:10;0.83;;;0.83;;
15404;SDS011;7801;48.124;11.590;2024-03-22T09:51:37;0.90;;;0.90;;
15404;SDS011;7801;48.124;11.590;2024-03-22T09:54:04;1.87;;;0.80;;
15404;SDS011;7801;48.124;11.590;2024-03-22T09:56:31;1.10;;;1.07;;
15404;SDS011;7801;48.124;11.590;2024-03-22T09:58:59;0.73;;;0.73;;
15404;SDS011;7801;48.124;11.590;2024-03-22T10:01:26;0.77;;;0.77;;
15404;SDS011;7801;48.124;11.590;2024-03-22T10:03:52;2.03;;;1.80;;
15404;SDS011;7801;48.124;11.590;2024-03-22T10:06:19;0.90;;;0.90;;
15404;SDS011;7801;48.124;11.590;2024-03-22T10:08:49;4.30;;;2.03;;
15404;SDS011;7801;48.124;11.590;2024-03-22T10:11:16;2.03;;;1.17;;
15404;SDS011;7801;48.124;11.590;2024-03-22T10:13:42;0.90;;;0.90;;
15404;SDS011;7801;48.124;11.590;2024-03-22T10:16:13;0.97;;;0.93;;
15404;SDS011;7801;48.124;11.590;2024-03-22T10:18:38;0.93;;;0.93;;
15404;SDS011;7801;48.124;11.590;2024-03-22T10:21:07;0.77;;;0.77;;
15404;SDS011;7801;48.124;11.590;2024-03-22T10:23:33;1.00;;;1.00;;
15404;SDS011;7801;48.124;11.590;2024-03-22T10:25:59;1.93;;;1.83;;
15404;SDS011;7801;48.124;11.590;2024-03-22T10:28:25;1.70;;;1.53;;
15404;SDS011;7801;48.124;11.590;2024-03-22T10:30:51;0.90;;;0.90;;
15404;SDS011;7801;48.124;11.590;2024-03-22T10:33:22;7.30;;;1.40;;
15404;SDS011;7801;48.124;11.590;2024-03-22T10:35:54;1.13;;;1.13;;
15404;SDS011;7801;48.124;11.590;2024-03-22T10:38:20;3.40;;;1.13;;
15404;SDS011;7801;48.124;11.590;2024-03-22T10:40:46;1.30;;;1.20;;
15404;SDS011;7801;48.124;11.590;2024-03-22T10:43:15;1.60;;;1.03;;
15404;SDS011;7801;48.124;11.590;2024-03-22T10:45:43;0.97;;;0.97;;
15404;SDS011;7801;48.124;11.590;2024-03-22T10:48:16;1.53;;;1.43;;
15404;SDS011;7801;48.124;11.590;2024-03-22T10:50:43;1.33;;;1.10;;
15404;SDS011;7801;48.124;11.590;2024-03-22T10:53:18;1.07;;;1.07;;
15404;SDS011;7801;48.124;11.590;2024-03-22T10:55:47;1.50;;;1.43;;
15404;SDS011;7801;48.124;11.590;2024-03-22T10:58:16;1.17;;;1.17;;
15404;SDS011;7801;48.124;11.590;2024-03-22T11:00:42;0.60;;;0.60;;
15404;SDS011;7801;48.124;11.590;2024-03-22T11:03:12;1.27;;;1.10;;
15404;SDS011;7801;48.124;11.590;2024-03-22T11:05:47;0.80;;;0.80;;
15404;SDS011;7801;48.124;11.590;2024-03-22T11:08:22;1.63;;;1.53;;
15404;SDS011;7801;48.124;11.590;2024-03-22T11:10:49;1.37;;;1.00;;
15404;SDS011;7801;48.124;11.590;2024-03-22T11:13:22;1.07;;;1.07;;
15404;SDS011;7801;48.124;11.590;2024-03-22T11:15:51;0.80;;;0.80;;
15404;SDS011;7801;48.124;11.590;2024-03-22T11:18:17;0.93;;;0.93;;
15404;SDS011;7801;48.124;11.590;2024-03-22T11:20:43;1.03;;;1.03;;
15404;SDS011;7801;48.124;11.590;2024-03-22T11:23:28;1.23;;;1.23;;
15404;SDS011;7801;48.124;11.590;2024-03-22T11:25:54;1.63;;;1.53;;
15404;SDS011;7801;48.124;11.590;2024-03-22T11:28:19;1.67;;;1.57;;
15404;SDS011;7801;48.124;11.590;2024-03-22T11:30:50;1.47;;;1.37;;
15404;SDS011;7801;48.124;11.590;2024-03-22T11:33:15;0.90;;;0.90;;
15404;SDS011;7801;48.124;11.590;2024-03-22T11:35:42;0.80;;;0.80;;
15404;SDS011;7801;48.124;11.590;2024-03-22T11:38:10;1.07;;;1.07;;
15404;SDS011;7801;48.124;11.590;2024-03-22T11:40:37;1.33;;;1.27;;
15404;SDS011;7801;48.124;11.590;2024-03-22T11:43:15;1.27;;;1.27;;
15404;SDS011;7801;48.124;11.590;2024-03-22T11:45:41;0.60;;;0.60;;
15404;SDS011;7801;48.124;11.590;2024-03-22T11:48:11;0.80;;;0.80;;
15404;SDS011;7801;48.124;11.590;2024-03-22T11:50:37;0.83;;;0.83;;
15404;SDS011;7801;48.124;11.590;2024-03-22T11:53:04;3.03;;;1.03;;
15404;SDS011;7801;48.124;11.590;2024-03-22T11:55:30;1.23;;;1.23;;
15404;SDS011;7801;48.124;11.590;2024-03-22T11:57:58;0.90;;;0.90;;
15404;SDS011;7801;48.124;11.590;2024-03-22T12:00:23;1.00;;;1.00;;
15404;SDS011;7801;48.124;11.590;2024-03-22T12:02:50;1.40;;;1.40;;
15404;SDS011;7801;48.124;11.590;2024-03-22T12:05:16;0.80;;;0.80;;
15404;SDS011;7801;48.124;11.590;2024-03-22T12:07:43;1.80;;;1.10;;
15404;SDS011;7801;48.124;11.590;2024-03-22T12:10:09;0.90;;;0.90;;
15404;SDS011;7801;48.124;11.590;2024-03-22T12:12:35;1.00;;;1.00;;
15404;SDS011;7801;48.124;11.590;2024-03-22T12:15:04;1.37;;;1.37;;
15404;SDS011;7801;48.124;11.590;2024-03-22T12:17:30;0.80;;;0.80;;
15404;SDS011;7801;48.124;11.590;2024-03-22T12:19:56;1.53;;;1.43;;
15404;SDS011;7801;48.124;11.590;2024-03-22T12:22:25;1.87;;;1.57;;
15404;SDS011;7801;48.124;11.590;2024-03-22T12:24:51;1.00;;;1.00;;
15404;SDS011;7801;48.124;11.590;2024-03-22T12:27:18;4.53;;;2.17;;
15404;SDS011;7801;48.124;11.590;2024-03-22T12:29:43;1.00;;;1.00;;
15404;SDS011;7801;48.124;11.590;2024-03-22T12:32:10;0.80;;;0.80;;
15404;SDS011;7801;48.124;11.590;2024-03-22T12:34:35;0.60;;;0.60;;
15404;SDS011;7801;48.124;11.590;2024-03-22T12:37:01;1.17;;;1.17;;
15404;SDS011;7801;48.124;11.590;2024-03-22T12:39:30;1.53;;;1.13;;
15404;SDS011;7801;48.124;11.590;2024-03-22T12:41:59;1.60;;;1.17;;
15404;SDS011;7801;48.124;11.590;2024-03-22T12:44:26;0.93;;;0.93;;
15404;SDS011;7801;48.124;11.590;2024-03-22T12:46:51;0.87;;;0.87;;
15404;SDS011;7801;48.124;11.590;2024-03-22T12:49:18;1.00;;;1.00;;
15404;SDS011;7801;48.124;11.590;2024-03-22T12:51:44;2.77;;;2.07;;
15404;SDS011;7801;48.124;11.590;2024-03-22T12:54:10;1.53;;;1.33;;
15404;SDS011;7801;48.124;11.590;2024-03-22T12:56:37;1.47;;;1.30;;
15404;SDS011;7801;48.124;11.590;2024-03-22T12:59:04;0.93;;;0.93;;
15404;SDS011;7801;48.124;11.590;2024-03-22T13:01:31;0.80;;;0.80;;
15404;SDS011;7801;48.124;11.590;2024-03-22T13:03:56;0.60;;;0.60;;
15404;SDS011;7801;48.124;11.590;2024-03-22T13:06:22;0.70;;;0.70;;
15404;SDS011;7801;48.124;11.590;2024-03-22T13:08:47;1.03;;;0.90;;
15404;SDS011;7801;48.124;11.590;2024-03-22T13:11:13;1.13;;;1.13;;
15404;SDS011;7801;48.124;11.590;2024-03-22T13:13:40;3.33;;;1.50;;
15404;SDS011;7801;48.124;11.590;2024-03-22T13:16:05;0.70;;;0.70;;
15404;SDS011;7801;48.124;11.590;2024-03-22T13:18:35;1.33;;;1.23;;
15404;SDS011;7801;48.124;11.590;2024-03-22T13:21:01;0.57;;;0.57;;
15404;SDS011;7801;48.124;11.590;2024-03-22T13:23:29;16.43;;;1.63;;
15404;SDS011;7801;48.124;11.590;2024-03-22T13:25:55;0.50;;;0.50;;
15404;SDS011;7801;48.124;11.590;2024-03-22T13:28:24;1.77;;;1.53;;
15404;SDS011;7801;48.124;11.590;2024-03-22T13:31:00;1.03;;;1.03;;
15404;SDS011;7801;48.124;11.590;2024-03-22T13:33:28;0.63;;;0.63;;
15404;SDS011;7801;48.124;11.590;2024-03-22T13:35:53;0.63;;;0.63;;
15404;SDS011;7801;48.124;11.590;2024-03-22T13:38:18;0.70;;;0.70;;
15404;SDS011;7801;48.124;11.590;2024-03-22T13:40:52;0.50;;;0.50;;
15404;SDS011;7801;48.124;11.590;2024-03-22T13:43:21;0.53;;;0.53;;
15404;SDS011;7801;48.124;11.590;2024-03-22T13:45:47;0.47;;;0.47;;
15404;SDS011;7801;48.124;11.590;2024-03-22T13:48:18;0.87;;;0.87;;
15404;SDS011;7801;48.124;11.590;2024-03-22T13:50:44;1.17;;;1.03;;
15404;SDS011;7801;48.124;11.590;2024-03-22T13:53:09;1.00;;;0.97;;
15404;SDS011;7801;48.124;11.590;2024-03-22T13:55:34;1.50;;;1.07;;
15404;SDS011;7801;48.124;11.590;2024-03-22T13:58:01;0.40;;;0.40;;
15404;SDS011;7801;48.124;11.590;2024-03-22T14:00:26;0.80;;;0.80;;
15404;SDS011;7801;48.124;11.590;2024-03-22T14:02:52;0.83;;;0.83;;
15404;SDS011;7801;48.124;11.590;2024-03-22T14:05:19;0.50;;;0.50;;
15404;SDS011;7801;48.124;11.590;2024-03-22T14:07:45;0.77;;;0.70;;
15404;SDS011;7801;48.124;11.590;2024-03-22T14:10:12;0.57;;;0.57;;
15404;SDS011;7801;48.124;11.590;2024-03-22T14:12:43;0.30;;;0.30;;
15404;SDS011;7801;48.124;11.590;2024-03-22T14:15:12;0.53;;;0.53;;
15404;SDS011;7801;48.124;11.590;2024-03-22T14:17:39;0.40;;;0.40;;
15404;SDS011;7801;48.124;11.590;2024-03-22T14:20:05;0.50;;;0.50;;
15404;SDS011;7801;48.124;11.590;2024-03-22T14:22:39;0.60;;;0.60;;
15404;SDS011;7801;48.124;11.590;2024-03-22T14:25:06;0.40;;;0.40;;
15404;SDS011;7801;48.124;11.590;2024-03-22T14:27:34;0.70;;;0.70;;
15404;SDS011;7801;48.124;11.590;2024-03-22T14:30:00;0.40;;;0.40;;
15404;SDS011;7801;48.124;11.590;2024-03-22T14:32:35;0.87;;;0.87;;
15404;SDS011;7801;48.124;11.590;2024-03-22T14:35:00;0.63;;;0.63;;
15404;SDS011;7801;48.124;11.590;2024-03-22T14:37:27;0.83;;;0.83;;
15404;SDS011;7801;48.124;11.590;2024-03-22T14:39:54;1.07;;;1.07;;
15404;SDS011;7801;48.124;11.590;2024-03-22T14:42:19;0.50;;;0.50;;
15404;SDS011;7801;48.124;11.590;2024-03-22T14:44:46;0.40;;;0.40;;